Time;durP1;ratioP1;P1;durP2;ratioP2;P2;SDS_P1;SDS_P2;PMS_P1;PMS_P2;Temp;Humidity;BMP_temperature;BMP_pressure;BME280_temperature;BME280_humidity;BME280_pressure;Samples;Min_cycle;Max_cycle;Signal;HPM_P1;HPM_P2
2020/12/31 00:01:23;;;;;;;7.18;4.55;;;5.30;99.90;;;;;;5042206;28;20265;-83
2020/12/31 00:03:50;;;;;;;6.18;4.25;;;5.30;99.90;;;;;;5037196;28;20207;-84
2020/12/31 00:06:17;;;;;;;7.40;4.28;;;5.10;99.90;;;;;;5036750;28;20211;-83
2020/12/31 00:08:44;;;;;;;5.72;4.05;;;5.00;99.90;;;;;;5036135;28;20203;-83
2020/12/31 00:11:11;;;;;;;6.10;4.22;;;5.00;99.90;;;;;;5036596;28;20211;-84
2020/12/31 00:13:38;;;;;;;8.10;4.85;;;5.20;99.90;;;;;;5035449;28;20204;-83
2020/12/31 00:16:05;;;;;;;7.30;4.80;;;5.30;99.90;;;;;;5021360;28;20323;-83
2020/12/31 00:18:31;;;;;;;7.50;5.15;;;5.10;99.90;;;;;;5023929;28;20223;-83
2020/12/31 00:20:59;;;;;;;6.10;4.70;;;5.20;99.90;;;;;;5036342;28;20203;-82
2020/12/31 00:23:25;;;;;;;7.25;4.60;;;5.00;99.90;;;;;;5034490;28;20249;-83
2020/12/31 00:25:53;;;;;;;5.72;3.80;;;5.20;99.90;;;;;;5035753;28;20318;-83
2020/12/31 00:28:22;;;;;;;9.52;4.78;;;5.10;99.90;;;;;;5036491;28;20199;-82
2020/12/31 00:30:49;;;;;;;6.18;4.10;;;5.00;99.90;;;;;;5037943;28;20203;-82
2020/12/31 00:33:16;;;;;;;8.50;4.75;;;4.80;99.90;;;;;;5046083;28;20199;-82
2020/12/31 00:35:44;;;;;;;8.20;5.00;;;4.90;99.90;;;;;;5042865;28;20239;-82
2020/12/31 00:38:11;;;;;;;8.05;4.50;;;5.10;99.90;;;;;;5037830;28;20595;-83
2020/12/31 00:40:38;;;;;;;6.85;4.45;;;5.10;99.90;;;;;;5036403;28;20207;-83
2020/12/31 00:43:04;;;;;;;7.00;4.63;;;5.00;99.90;;;;;;5036634;28;20199;-82
2020/12/31 00:45:31;;;;;;;6.88;4.60;;;5.10;99.90;;;;;;5037505;28;20242;-83
2020/12/31 00:47:57;;;;;;;5.25;3.47;;;5.10;99.90;;;;;;5035176;28;20203;-83
2020/12/31 00:50:24;;;;;;;5.60;3.70;;;4.80;99.90;;;;;;5036227;28;20207;-82
2020/12/31 00:52:51;;;;;;;5.88;3.50;;;5.10;99.90;;;;;;5036427;28;20199;-84
2020/12/31 00:55:18;;;;;;;5.32;2.90;;;5.00;99.90;;;;;;5036692;28;20235;-83
2020/12/31 00:57:45;;;;;;;5.38;2.65;;;5.00;99.90;;;;;;5041186;28;20230;-84
2020/12/31 01:00:13;;;;;;;5.85;2.50;;;5.10;99.90;;;;;;5036984;28;20206;-84
2020/12/31 01:02:40;;;;;;;4.57;2.72;;;4.90;99.90;;;;;;5035307;28;20200;-82
2020/12/31 01:05:08;;;;;;;6.47;2.65;;;4.80;99.90;;;;;;5035168;28;20259;-84
2020/12/31 01:07:34;;;;;;;6.82;3.92;;;5.00;99.90;;;;;;5031027;28;20796;-84
2020/12/31 01:10:01;;;;;;;4.72;3.38;;;5.00;99.90;;;;;;5033929;28;20252;-84
2020/12/31 01:12:30;;;;;;;5.93;4.32;;;5.20;99.90;;;;;;5034458;28;20569;-84
2020/12/31 01:14:57;;;;;;;6.13;3.30;;;5.30;99.90;;;;;;5034314;28;20227;-84
2020/12/31 01:17:25;;;;;;;7.32;3.83;;;5.10;99.90;;;;;;5037108;28;20306;-82
2020/12/31 01:19:51;;;;;;;6.78;3.72;;;5.00;99.90;;;;;;5037031;28;20259;-84
2020/12/31 01:22:18;;;;;;;6.82;4.15;;;5.10;99.90;;;;;;5038523;28;20207;-83
2020/12/31 01:24:45;;;;;;;6.90;3.95;;;5.00;99.90;;;;;;5038653;28;20250;-83
2020/12/31 01:27:11;;;;;;;6.28;4.10;;;4.70;99.90;;;;;;5034190;28;20317;-83
2020/12/31 01:29:39;;;;;;;5.63;4.00;;;4.70;99.90;;;;;;5034345;28;20221;-84
2020/12/31 01:32:07;;;;;;;6.35;3.75;;;4.90;99.90;;;;;;5038490;28;20563;-83
2020/12/31 01:34:34;;;;;;;5.97;3.30;;;4.60;99.90;;;;;;5038462;28;20241;-84
2020/12/31 01:37:00;;;;;;;5.88;3.40;;;4.40;99.90;;;;;;5048947;28;20211;-81
2020/12/31 01:39:27;;;;;;;5.53;3.70;;;4.70;99.90;;;;;;5055261;28;20199;-81
2020/12/31 01:41:54;;;;;;;7.57;4.45;;;4.40;99.90;;;;;;5032191;28;20204;-84
2020/12/31 01:44:20;;;;;;;7.38;3.88;;;4.50;99.90;;;;;;5016555;28;20227;-84
2020/12/31 01:46:49;;;;;;;5.95;3.45;;;4.40;99.90;;;;;;5029292;28;20222;-84
2020/12/31 01:49:18;;;;;;;6.15;3.70;;;4.70;99.90;;;;;;5034842;28;20206;-83
2020/12/31 01:51:47;;;;;;;7.70;3.60;;;4.30;99.90;;;;;;5037339;28;20199;-83
2020/12/31 01:54:17;;;;;;;7.35;4.57;;;4.30;99.90;;;;;;5045832;28;20235;-80
2020/12/31 01:56:44;;;;;;;6.43;4.07;;;4.30;99.90;;;;;;5045797;28;20214;-83
2020/12/31 01:59:15;;;;;;;5.90;3.88;;;4.30;99.90;;;;;;5041693;28;20279;-83
2020/12/31 02:01:41;;;;;;;6.28;4.05;;;4.40;99.90;;;;;;5052550;28;20215;-82
2020/12/31 02:04:09;;;;;;;7.65;4.10;;;4.30;99.90;;;;;;5051688;28;20230;-83
2020/12/31 02:06:37;;;;;;;5.38;4.25;;;4.40;99.90;;;;;;5028351;28;20204;-85
2020/12/31 02:09:04;;;;;;;5.70;3.75;;;4.30;99.90;;;;;;5020956;28;20267;-83
2020/12/31 02:11:31;;;;;;;6.95;4.10;;;4.60;99.90;;;;;;5032749;28;20207;-84
2020/12/31 02:13:58;;;;;;;7.53;4.60;;;4.50;99.90;;;;;;5044066;28;20648;-85
2020/12/31 02:16:27;;;;;;;6.20;4.05;;;4.30;99.90;;;;;;5034277;28;20206;-83
2020/12/31 02:18:56;;;;;;;6.57;3.92;;;4.60;99.90;;;;;;5039636;28;20242;-85
2020/12/31 02:21:28;;;;;;;6.30;4.05;;;4.50;99.90;;;;;;5038411;28;20204;-84
2020/12/31 02:23:57;;;;;;;6.78;3.83;;;4.40;99.90;;;;;;5034973;28;20211;-83
2020/12/31 02:26:24;;;;;;;6.30;3.80;;;4.50;99.90;;;;;;5031939;28;20203;-80
2020/12/31 02:28:51;;;;;;;5.22;3.15;;;4.60;99.90;;;;;;5033762;28;20207;-83
2020/12/31 02:31:18;;;;;;;7.07;4.28;;;4.30;99.90;;;;;;5036621;28;20676;-80
2020/12/31 02:33:45;;;;;;;7.25;3.92;;;4.30;99.90;;;;;;5036147;28;20207;-79
2020/12/31 02:36:12;;;;;;;6.45;4.20;;;4.30;99.90;;;;;;5036234;28;20615;-81
2020/12/31 02:38:39;;;;;;;7.68;4.50;;;4.40;99.90;;;;;;5035939;28;20226;-81
2020/12/31 02:41:07;;;;;;;8.23;4.28;;;4.20;99.90;;;;;;5036627;28;20203;-81
2020/12/31 02:43:35;;;;;;;6.82;4.18;;;4.20;99.90;;;;;;5036418;28;20298;-81
2020/12/31 02:46:02;;;;;;;5.97;4.25;;;4.40;99.90;;;;;;5036259;28;20233;-80
2020/12/31 02:48:28;;;;;;;7.10;4.70;;;4.20;99.90;;;;;;5034496;28;20210;-79
2020/12/31 02:50:55;;;;;;;5.68;3.90;;;4.10;99.90;;;;;;5037697;28;20206;-81
2020/12/31 02:53:21;;;;;;;7.95;4.43;;;4.10;99.90;;;;;;5038183;28;20214;-84
2020/12/31 02:55:48;;;;;;;7.65;4.93;;;4.10;99.90;;;;;;5037301;28;20850;-80
2020/12/31 02:58:17;;;;;;;5.53;3.58;;;4.20;99.90;;;;;;5035056;28;20548;-80
2020/12/31 03:00:43;;;;;;;8.85;4.68;;;4.20;99.90;;;;;;5036908;28;20203;-82
2020/12/31 03:03:10;;;;;;;5.70;4.10;;;4.30;99.90;;;;;;5036462;28;20215;-79
2020/12/31 03:05:37;;;;;;;8.43;4.53;;;4.00;99.90;;;;;;5035843;28;20235;-79
2020/12/31 03:08:04;;;;;;;8.05;4.35;;;4.20;99.90;;;;;;5037652;28;20211;-82
2020/12/31 03:10:31;;;;;;;8.88;5.45;;;4.00;99.90;;;;;;5037208;28;20199;-80
2020/12/31 03:12:58;;;;;;;6.88;4.10;;;4.10;99.90;;;;;;5037621;28;20268;-82
2020/12/31 03:15:25;;;;;;;6.90;4.45;;;4.00;99.90;;;;;;5029309;28;20310;-80
2020/12/31 03:17:53;;;;;;;7.97;4.82;;;3.90;99.90;;;;;;5016267;28;20219;-81
2020/12/31 03:20:19;;;;;;;7.68;5.00;;;3.90;99.90;;;;;;5035656;28;20207;-83
2020/12/31 03:22:46;;;;;;;8.65;4.93;;;4.10;99.90;;;;;;5042747;28;20321;-82
2020/12/31 03:25:12;;;;;;;7.75;4.30;;;4.00;99.90;;;;;;5041637;28;20771;-83
2020/12/31 03:27:39;;;;;;;7.40;4.05;;;4.00;99.90;;;;;;5041350;28;20211;-80
2020/12/31 03:30:05;;;;;;;10.10;5.07;;;4.00;99.90;;;;;;5038920;28;20215;-83
2020/12/31 03:32:33;;;;;;;9.20;4.95;;;4.00;99.90;;;;;;5038167;28;20214;-81
2020/12/31 03:34:59;;;;;;;9.70;4.93;;;3.90;99.90;;;;;;5033780;28;20247;-82
2020/12/31 03:37:26;;;;;;;8.50;5.03;;;3.80;99.90;;;;;;5034646;28;20238;-83
2020/12/31 03:39:53;;;;;;;8.57;5.50;;;3.70;99.90;;;;;;5033786;28;20203;-83
2020/12/31 03:42:20;;;;;;;8.30;4.70;;;3.70;99.90;;;;;;5033745;28;20266;-82
2020/12/31 03:44:46;;;;;;;10.52;4.70;;;3.90;99.90;;;;;;5033197;28;20241;-82
2020/12/31 03:47:13;;;;;;;8.15;5.25;;;3.70;99.90;;;;;;5034651;28;20218;-83
2020/12/31 03:49:41;;;;;;;8.80;5.80;;;3.70;99.90;;;;;;5037143;28;20203;-83
2020/12/31 03:52:07;;;;;;;7.40;4.82;;;3.60;99.90;;;;;;5037824;28;20215;-83
2020/12/31 03:54:34;;;;;;;10.30;5.25;;;3.50;99.90;;;;;;5038082;28;20768;-84
2020/12/31 03:57:00;;;;;;;7.13;4.50;;;3.60;99.90;;;;;;5037320;28;20261;-83
2020/12/31 03:59:27;;;;;;;7.68;5.15;;;3.50;99.90;;;;;;5037153;28;20215;-81
2020/12/31 04:01:53;;;;;;;9.05;4.88;;;3.50;99.90;;;;;;5038685;28;20236;-83
2020/12/31 04:04:20;;;;;;;8.15;5.00;;;3.50;99.90;;;;;;5038527;28;20549;-84
2020/12/31 04:06:49;;;;;;;7.00;4.70;;;3.40;99.90;;;;;;5039416;28;20203;-83
2020/12/31 04:09:17;;;;;;;6.95;4.68;;;3.40;99.90;;;;;;5048557;28;20203;-80
2020/12/31 04:11:44;;;;;;;7.93;4.93;;;3.50;99.90;;;;;;5041370;28;20639;-83
2020/12/31 04:14:10;;;;;;;8.50;4.68;;;3.30;99.90;;;;;;5037525;28;20238;-83
2020/12/31 04:16:37;;;;;;;7.35;4.78;;;3.30;99.90;;;;;;5038431;28;20612;-81
2020/12/31 04:19:03;;;;;;;7.63;5.22;;;3.40;99.90;;;;;;5036938;28;20348;-83
2020/12/31 04:21:30;;;;;;;10.05;4.90;;;3.30;99.90;;;;;;5038249;28;20279;-84
2020/12/31 04:23:57;;;;;;;7.65;4.95;;;3.30;99.90;;;;;;5037404;28;20208;-83
2020/12/31 04:26:24;;;;;;;9.55;4.95;;;3.30;99.90;;;;;;5037436;28;20556;-82
2020/12/31 04:28:50;;;;;;;8.63;5.97;;;3.20;99.90;;;;;;5037738;28;20211;-83
2020/12/31 04:31:17;;;;;;;8.05;4.40;;;3.40;99.90;;;;;;5038060;28;20215;-83
2020/12/31 04:33:43;;;;;;;7.63;4.85;;;3.00;99.90;;;;;;5038166;28;20696;-83
2020/12/31 04:36:10;;;;;;;8.27;5.05;;;3.00;99.90;;;;;;5039094;28;20234;-83
2020/12/31 04:38:36;;;;;;;7.25;4.25;;;3.00;99.90;;;;;;5037972;28;20230;-84
2020/12/31 04:41:04;;;;;;;9.23;5.15;;;3.20;99.90;;;;;;5041993;28;20669;-82
2020/12/31 04:43:31;;;;;;;8.35;4.95;;;3.20;99.90;;;;;;5041095;28;20807;-82
2020/12/31 04:46:01;;;;;;;8.20;5.20;;;3.40;99.90;;;;;;5034321;28;20226;-82
2020/12/31 04:48:38;;;;;;;7.28;4.55;;;3.00;99.90;;;;;;5033860;28;20562;-83
2020/12/31 04:51:08;;;;;;;7.97;4.65;;;3.00;99.90;;;;;;5036330;28;20213;-83
2020/12/31 04:53:35;;;;;;;7.00;4.55;;;3.30;99.90;;;;;;5045957;28;20221;-80
2020/12/31 04:56:05;;;;;;;8.63;5.55;;;3.00;99.90;;;;;;5054204;28;20258;-80
2020/12/31 04:58:31;;;;;;;7.97;5.10;;;3.10;99.90;;;;;;5045247;28;20238;-81
2020/12/31 05:00:58;;;;;;;10.63;5.70;;;3.10;99.90;;;;;;5052087;28;20203;-80
2020/12/31 05:03:25;;;;;;;7.97;5.47;;;3.00;99.90;;;;;;5037751;28;20263;-82
2020/12/31 05:05:56;;;;;;;10.85;5.00;;;2.90;99.90;;;;;;5037875;28;20682;-83
2020/12/31 05:08:29;;;;;;;8.38;5.55;;;2.90;99.90;;;;;;5037434;28;20207;-81
2020/12/31 05:10:57;;;;;;;7.05;4.22;;;2.90;99.90;;;;;;5049995;28;20191;-79
2020/12/31 05:13:25;;;;;;;7.65;5.18;;;3.00;99.90;;;;;;5054422;28;20198;-80
2020/12/31 05:15:51;;;;;;;7.63;4.53;;;2.80;99.90;;;;;;5041026;28;20234;-80
2020/12/31 05:18:20;;;;;;;7.53;5.00;;;3.00;99.90;;;;;;5054825;28;20211;-79
2020/12/31 05:20:48;;;;;;;8.10;4.88;;;2.90;99.90;;;;;;5055073;28;20195;-79
2020/12/31 05:23:15;;;;;;;6.43;4.13;;;3.10;99.90;;;;;;5040829;28;20192;-83
2020/12/31 05:25:42;;;;;;;8.38;4.13;;;3.10;99.90;;;;;;5036603;28;20227;-83
2020/12/31 05:28:28;;;;;;;6.20;4.20;;;2.80;99.90;;;;;;5036031;28;20226;-80
2020/12/31 05:30:57;;;;;;;7.65;4.90;;;3.20;99.90;;;;;;5041142;28;20195;-79
2020/12/31 05:33:29;;;;;;;6.25;4.28;;;2.90;99.90;;;;;;5045273;28;20287;-81
2020/12/31 05:36:17;;;;;;;7.63;4.18;;;2.90;99.90;;;;;;5042862;28;20239;-79
2020/12/31 05:38:45;;;;;;;7.40;3.72;;;2.90;99.90;;;;;;5047222;28;20238;-82
2020/12/31 05:41:12;;;;;;;5.43;3.60;;;2.90;99.90;;;;;;5036165;28;20207;-81
2020/12/31 05:43:42;;;;;;;7.55;4.10;;;2.90;99.90;;;;;;5036393;28;20215;-83
2020/12/31 05:46:10;;;;;;;8.35;3.85;;;3.00;99.90;;;;;;5035876;28;20254;-82
2020/12/31 05:48:37;;;;;;;6.93;3.90;;;2.90;99.90;;;;;;5035564;28;20230;-83
2020/12/31 05:51:22;;;;;;;6.30;4.03;;;2.90;99.90;;;;;;5039700;28;20422;-80
2020/12/31 05:53:50;;;;;;;6.40;3.92;;;3.00;99.90;;;;;;5046473;28;20215;-81
2020/12/31 05:56:20;;;;;;;8.43;4.57;;;2.80;99.90;;;;;;5039416;28;20199;-82
2020/12/31 05:58:50;;;;;;;8.90;3.92;;;3.00;99.90;;;;;;5035257;28;20227;-83
2020/12/31 06:01:18;;;;;;;6.43;3.70;;;3.00;99.90;;;;;;5036404;28;20302;-82
2020/12/31 06:03:50;;;;;;;6.13;3.80;;;3.20;99.90;;;;;;5036802;28;20221;-80
2020/12/31 06:06:21;;;;;;;6.97;3.72;;;3.20;99.90;;;;;;5035475;28;20305;-81
2020/12/31 06:09:03;;;;;;;6.63;4.38;;;2.90;99.90;;;;;;5036025;28;20365;-82
2020/12/31 06:11:37;;;;;;;8.23;3.80;;;2.80;99.90;;;;;;5036287;28;20891;-84
2020/12/31 06:14:05;;;;;;;5.43;3.65;;;2.90;99.90;;;;;;5034666;28;20206;-81
2020/12/31 06:16:38;;;;;;;6.68;3.67;;;3.00;99.90;;;;;;5032604;28;20223;-83
2020/12/31 06:19:33;;;;;;;8.57;4.68;;;2.90;99.90;;;;;;5032951;28;20215;-79
2020/12/31 06:22:05;;;;;;;7.22;4.10;;;3.00;99.90;;;;;;4996367;28;20226;-80
2020/12/31 06:24:33;;;;;;;7.68;4.00;;;2.80;99.90;;;;;;5033647;28;20235;-81
2020/12/31 06:27:06;;;;;;;6.53;4.05;;;2.80;99.90;;;;;;5035596;28;20211;-79
2020/12/31 06:29:40;;;;;;;10.98;4.13;;;2.80;99.90;;;;;;5031278;28;20199;-81
2020/12/31 06:32:26;;;;;;;6.47;3.50;;;2.90;99.90;;;;;;5031362;28;20344;-81
2020/12/31 06:35:02;;;;;;;6.75;4.32;;;3.10;99.90;;;;;;5029118;28;20266;-80
2020/12/31 06:37:30;;;;;;;5.65;3.70;;;2.80;99.90;;;;;;5031725;28;20662;-80
2020/12/31 06:40:22;;;;;;;5.47;3.33;;;2.90;99.90;;;;;;5033606;28;20290;-83
2020/12/31 06:43:08;;;;;;;5.93;3.20;;;3.20;99.90;;;;;;5031328;28;20268;-82
2020/12/31 06:45:44;;;;;;;7.80;4.05;;;3.20;99.90;;;;;;5031857;28;20235;-82
2020/12/31 06:48:36;;;;;;;6.80;3.83;;;3.00;99.90;;;;;;5031199;28;20194;-82
2020/12/31 06:51:08;;;;;;;5.88;3.50;;;3.20;99.90;;;;;;5032126;28;20298;-84
2020/12/31 06:53:36;;;;;;;6.40;3.47;;;2.90;99.90;;;;;;5031913;28;20206;-84
2020/12/31 06:56:04;;;;;;;5.25;3.03;;;3.00;99.90;;;;;;5033825;28;20614;-84
2020/12/31 06:58:32;;;;;;;6.40;3.80;;;3.20;99.90;;;;;;5033203;28;20303;-83
2020/12/31 07:01:00;;;;;;;5.85;3.70;;;3.00;99.90;;;;;;5033393;28;20203;-84
2020/12/31 07:03:48;;;;;;;6.95;3.65;;;3.00;99.90;;;;;;5033233;28;20286;-84
2020/12/31 07:06:29;;;;;;;6.13;3.47;;;3.20;99.90;;;;;;5033955;28;20207;-84
2020/12/31 07:08:57;;;;;;;10.25;4.45;;;3.00;99.90;;;;;;5034599;28;20233;-82
2020/12/31 07:11:31;;;;;;;9.20;5.00;;;3.10;99.90;;;;;;5040033;28;20211;-83
2020/12/31 07:13:58;;;;;;;6.20;4.10;;;3.10;99.90;;;;;;5046067;28;20207;-81
2020/12/31 07:16:45;;;;;;;6.60;3.95;;;3.20;99.90;;;;;;5035291;28;20214;-83
2020/12/31 07:19:11;;;;;;;6.28;4.07;;;3.00;99.90;;;;;;5014231;28;20231;-84
2020/12/31 07:21:38;;;;;;;7.00;4.28;;;3.00;99.90;;;;;;5032913;28;20206;-83
2020/12/31 07:24:28;;;;;;;5.93;3.75;;;3.40;99.90;;;;;;5036067;28;20726;-83
2020/12/31 07:26:56;;;;;;;5.30;3.95;;;3.20;99.90;;;;;;5030934;28;20283;-83
2020/12/31 07:29:34;;;;;;;8.95;4.88;;;3.40;99.90;;;;;;5038729;28;20207;-81
2020/12/31 07:32:03;;;;;;;8.13;4.30;;;3.40;99.90;;;;;;5017596;28;20229;-83
2020/12/31 07:34:32;;;;;;;6.22;3.90;;;3.20;99.90;;;;;;5035585;28;20238;-84
2020/12/31 07:37:00;;;;;;;7.40;4.30;;;3.30;99.90;;;;;;5038602;28;20645;-83
2020/12/31 07:39:28;;;;;;;7.30;4.40;;;3.30;99.90;;;;;;5036804;28;20227;-84
2020/12/31 07:42:11;;;;;;;10.18;4.32;;;3.30;99.90;;;;;;5038006;28;20211;-83
2020/12/31 07:44:51;;;;;;;6.50;4.88;;;3.40;99.90;;;;;;5036290;28;20310;-84
2020/12/31 07:47:21;;;;;;;6.72;4.68;;;3.40;99.90;;;;;;5038036;28;20207;-84
2020/12/31 07:49:49;;;;;;;9.15;5.18;;;3.60;99.90;;;;;;5037329;28;20211;-84
2020/12/31 07:52:18;;;;;;;7.45;4.38;;;3.40;99.90;;;;;;5037775;28;20198;-81
2020/12/31 07:54:45;;;;;;;9.80;5.63;;;3.40;99.90;;;;;;5036382;28;20292;-83
2020/12/31 07:57:13;;;;;;;7.75;5.45;;;3.30;99.90;;;;;;5034605;28;20207;-81
2020/12/31 07:59:44;;;;;;;8.10;4.85;;;3.50;99.90;;;;;;5035132;28;20226;-81
2020/12/31 08:02:14;;;;;;;8.45;4.85;;;3.40;99.90;;;;;;5035061;28;20269;-82
2020/12/31 08:04:43;;;;;;;7.43;4.85;;;3.50;99.90;;;;;;5034263;28;20227;-83
2020/12/31 08:07:16;;;;;;;10.15;5.78;;;3.80;99.90;;;;;;5034303;28;20211;-81
2020/12/31 08:09:44;;;;;;;7.00;4.88;;;3.50;99.90;;;;;;5033610;28;20212;-76
2020/12/31 08:12:11;;;;;;;7.22;4.75;;;3.60;99.90;;;;;;5041141;28;20199;-79
2020/12/31 08:14:43;;;;;;;7.00;5.03;;;3.80;99.90;;;;;;5043241;28;20258;-79
2020/12/31 08:17:10;;;;;;;8.80;5.03;;;3.80;99.90;;;;;;5043351;28;20221;-82
2020/12/31 08:19:38;;;;;;;8.82;5.50;;;3.80;99.90;;;;;;5036011;28;20231;-80
2020/12/31 08:22:17;;;;;;;10.52;7.07;;;4.00;99.90;;;;;;5035484;28;20205;-80
2020/12/31 08:24:51;;;;;;;8.25;5.60;;;4.00;99.90;;;;;;5037008;28;20269;-83
2020/12/31 08:27:21;;;;;;;6.97;5.18;;;4.30;99.90;;;;;;5017896;28;20710;-82
2020/12/31 08:29:50;;;;;;;9.98;5.80;;;4.40;99.90;;;;;;5020873;28;20631;-82
2020/12/31 08:32:27;;;;;;;8.95;5.53;;;4.20;99.90;;;;;;5027521;28;20290;-81
2020/12/31 08:34:57;;;;;;;8.20;5.63;;;4.50;99.90;;;;;;5043158;28;20219;-81
2020/12/31 08:37:26;;;;;;;8.95;5.97;;;4.50;99.90;;;;;;5054906;28;20203;-80
2020/12/31 08:39:54;;;;;;;9.52;6.93;;;4.30;99.90;;;;;;5019103;28;20361;-81
2020/12/31 08:42:22;;;;;;;11.05;5.50;;;4.40;99.90;;;;;;5044272;28;20199;-81
2020/12/31 08:44:54;;;;;;;9.10;5.22;;;4.70;99.90;;;;;;5044987;28;20337;-77
2020/12/31 08:47:22;;;;;;;8.90;5.82;;;4.50;99.90;;;;;;5042406;28;20203;-79
2020/12/31 08:49:54;;;;;;;8.05;5.70;;;4.50;99.90;;;;;;5037682;28;20545;-80
2020/12/31 08:52:24;;;;;;;8.30;6.18;;;4.40;99.90;;;;;;5038623;28;20202;-80
2020/12/31 08:55:11;;;;;;;8.75;6.22;;;4.50;99.90;;;;;;5042954;28;20233;-83
2020/12/31 08:57:38;;;;;;;8.45;6.50;;;4.50;99.90;;;;;;5040914;28;20265;-81
2020/12/31 09:00:05;;;;;;;9.05;6.07;;;4.80;99.90;;;;;;5034696;28;20208;-82
2020/12/31 09:02:32;;;;;;;10.77;6.45;;;4.80;99.90;;;;;;5039243;28;20250;-81
2020/12/31 09:05:16;;;;;;;8.57;5.93;;;4.70;99.90;;;;;;5048838;28;20214;-80
2020/12/31 09:07:43;;;;;;;10.30;6.20;;;4.90;99.90;;;;;;5053864;28;20210;-80
2020/12/31 09:10:15;;;;;;;7.85;5.55;;;4.70;99.90;;;;;;5051658;28;20226;-81
2020/12/31 09:12:42;;;;;;;8.35;5.30;;;4.50;99.90;;;;;;5049324;28;20199;-81
2020/12/31 09:15:18;;;;;;;9.68;5.70;;;4.50;99.90;;;;;;5039039;28;20230;-83
2020/12/31 09:17:45;;;;;;;11.00;6.82;;;4.80;99.90;;;;;;5035464;28;20245;-83
2020/12/31 09:20:20;;;;;;;10.43;6.97;;;4.50;99.90;;;;;;5036721;28;20211;-84
2020/12/31 09:22:47;;;;;;;13.73;7.50;;;4.80;99.90;;;;;;5035085;28;20207;-82
2020/12/31 09:25:14;;;;;;;8.27;5.80;;;4.90;99.90;;;;;;5035511;28;20242;-82
2020/12/31 09:27:43;;;;;;;10.75;6.30;;;5.00;99.90;;;;;;5036788;28;20234;-84
2020/12/31 09:30:11;;;;;;;11.30;6.80;;;4.80;99.90;;;;;;5043013;28;20214;-83
2020/12/31 09:32:38;;;;;;;9.70;6.38;;;5.00;99.90;;;;;;5047372;28;20207;-83
2020/12/31 09:35:07;;;;;;;9.75;6.43;;;4.90;99.90;;;;;;5048431;28;20290;-82
2020/12/31 09:37:54;;;;;;;12.85;7.82;;;4.70;99.90;;;;;;5044261;28;20267;-83
2020/12/31 09:40:21;;;;;;;10.70;7.70;;;4.80;99.90;;;;;;5034193;28;20234;-81
2020/12/31 09:42:47;;;;;;;13.20;7.50;;;4.80;99.90;;;;;;5043819;28;20203;-83
2020/12/31 09:45:14;;;;;;;10.15;6.72;;;4.60;99.90;;;;;;5043435;28;20219;-81
2020/12/31 09:47:41;;;;;;;10.13;6.90;;;4.70;99.90;;;;;;5044756;28;20257;-83
2020/12/31 09:50:10;;;;;;;9.27;6.53;;;4.80;99.90;;;;;;5048384;28;20210;-81
2020/12/31 09:52:37;;;;;;;10.82;6.82;;;4.70;99.90;;;;;;5048309;28;20291;-82
2020/12/31 09:55:05;;;;;;;11.18;6.50;;;4.90;99.90;;;;;;5048005;28;20283;-83
2020/12/31 09:57:32;;;;;;;9.35;6.15;;;5.20;99.90;;;;;;5047487;28;20221;-82
2020/12/31 09:59:59;;;;;;;10.93;7.03;;;5.00;99.90;;;;;;5048032;28;20276;-82
2020/12/31 10:02:25;;;;;;;12.23;6.97;;;5.10;99.90;;;;;;5048837;28;20199;-84
2020/12/31 10:04:52;;;;;;;9.50;6.95;;;4.90;99.90;;;;;;5049068;28;20218;-82
2020/12/31 10:07:19;;;;;;;8.73;5.70;;;5.10;99.90;;;;;;5046744;28;20215;-83
2020/12/31 10:09:45;;;;;;;9.38;5.85;;;5.00;99.90;;;;;;5047596;28;20218;-81
2020/12/31 10:12:14;;;;;;;8.95;5.97;;;5.00;99.90;;;;;;5042943;28;20211;-84
2020/12/31 10:14:41;;;;;;;8.68;6.53;;;5.10;99.90;;;;;;5038831;28;20227;-85
2020/12/31 10:17:08;;;;;;;9.05;6.10;;;5.20;99.90;;;;;;5037699;28;20207;-83
2020/12/31 10:19:35;;;;;;;9.70;6.28;;;5.20;99.90;;;;;;5039234;28;20329;-83
2020/12/31 10:22:02;;;;;;;9.38;5.75;;;5.30;99.90;;;;;;5035147;28;20203;-84
2020/12/31 10:24:29;;;;;;;11.07;7.05;;;5.50;99.90;;;;;;5033401;28;20226;-86
2020/12/31 10:26:55;;;;;;;10.30;5.63;;;5.60;99.90;;;;;;5033114;28;20275;-83
2020/12/31 10:29:23;;;;;;;8.20;5.13;;;5.60;99.90;;;;;;5033371;28;20203;-82
2020/12/31 10:31:50;;;;;;;9.20;5.95;;;5.60;99.90;;;;;;5033762;28;20203;-83
2020/12/31 10:34:17;;;;;;;8.40;6.15;;;5.60;99.90;;;;;;5034391;28;20235;-86
2020/12/31 10:36:49;;;;;;;8.98;5.90;;;5.60;99.90;;;;;;5033915;28;20246;-83
2020/12/31 10:39:15;;;;;;;9.73;5.85;;;5.70;99.90;;;;;;5036170;28;20207;-86
2020/12/31 10:41:42;;;;;;;11.85;5.53;;;5.60;99.90;;;;;;5036998;28;20657;-83
2020/12/31 10:44:08;;;;;;;6.53;5.10;;;5.70;99.90;;;;;;5033301;28;20227;-83
2020/12/31 10:46:36;;;;;;;11.40;5.78;;;5.80;99.90;;;;;;5033342;28;20215;-86
2020/12/31 10:49:02;;;;;;;7.72;5.10;;;5.90;99.90;;;;;;5034161;28;20195;-84
2020/12/31 10:51:32;;;;;;;7.38;4.45;;;5.70;99.90;;;;;;5033847;28;20199;-88
2020/12/31 10:53:58;;;;;;;7.10;4.55;;;5.60;99.90;;;;;;5034555;28;20199;-83
2020/12/31 10:56:25;;;;;;;6.55;4.90;;;5.80;99.90;;;;;;5014947;28;20207;-84
2020/12/31 10:58:51;;;;;;;7.68;4.78;;;5.30;99.90;;;;;;5014095;28;20235;-85
2020/12/31 11:01:18;;;;;;;7.35;4.75;;;5.60;99.90;;;;;;5015173;28;20710;-84
2020/12/31 11:03:45;;;;;;;6.75;4.43;;;5.40;99.90;;;;;;5023875;28;20206;-85
2020/12/31 11:06:18;;;;;;;7.55;5.22;;;5.50;99.90;;;;;;5034155;28;20765;-85
2020/12/31 11:08:44;;;;;;;7.07;4.53;;;5.40;99.90;;;;;;5033529;28;20298;-81
2020/12/31 11:11:16;;;;;;;7.95;5.00;;;5.50;99.90;;;;;;5034279;28;20203;-85
2020/12/31 11:13:43;;;;;;;9.10;4.82;;;5.20;99.90;;;;;;5036930;28;20211;-85
2020/12/31 11:16:09;;;;;;;7.03;5.18;;;5.40;99.90;;;;;;5040790;28;20223;-85
2020/12/31 11:18:36;;;;;;;7.32;4.15;;;5.50;99.90;;;;;;5033904;28;20218;-84
2020/12/31 11:21:03;;;;;;;7.03;4.70;;;5.40;99.90;;;;;;5035382;28;20531;-86
2020/12/31 11:23:30;;;;;;;8.13;5.30;;;5.50;99.90;;;;;;5034384;28;20254;-84
2020/12/31 11:25:57;;;;;;;6.22;4.47;;;5.40;99.90;;;;;;5037047;28;20261;-85
2020/12/31 11:28:23;;;;;;;6.95;4.90;;;5.50;99.90;;;;;;5041063;28;20207;-86
2020/12/31 11:30:51;;;;;;;7.18;4.65;;;5.50;99.90;;;;;;5051091;28;20218;-87
2020/12/31 11:33:18;;;;;;;10.50;4.45;;;5.40;99.90;;;;;;5048666;28;20242;-87
2020/12/31 11:35:44;;;;;;;7.60;5.00;;;5.20;99.90;;;;;;5042167;28;20337;-86
2020/12/31 11:38:12;;;;;;;6.60;4.40;;;5.40;99.90;;;;;;5037065;28;20242;-85
2020/12/31 11:40:38;;;;;;;7.10;4.45;;;5.50;99.90;;;;;;5037310;28;20203;-87
2020/12/31 11:43:05;;;;;;;7.43;5.03;;;5.40;99.90;;;;;;5037991;28;20271;-86
2020/12/31 11:45:32;;;;;;;8.07;4.95;;;5.30;99.90;;;;;;5043733;28;20234;-84
2020/12/31 11:47:58;;;;;;;8.40;4.90;;;5.40;99.90;;;;;;5049240;28;20270;-86
2020/12/31 11:50:25;;;;;;;8.82;5.65;;;5.60;99.90;;;;;;5049479;28;20253;-84
2020/12/31 11:52:52;;;;;;;7.63;5.28;;;5.70;99.90;;;;;;5030815;28;20216;-86
2020/12/31 11:55:19;;;;;;;10.15;5.90;;;5.50;99.90;;;;;;5024271;28;20731;-85
2020/12/31 11:57:46;;;;;;;7.90;5.28;;;5.50;99.90;;;;;;5023791;28;20204;-86
2020/12/31 12:00:14;;;;;;;8.98;5.70;;;5.50;99.90;;;;;;5018055;28;20219;-85
2020/12/31 12:02:40;;;;;;;7.90;5.38;;;5.50;99.90;;;;;;5015841;28;20211;-86
2020/12/31 12:05:08;;;;;;;8.55;5.20;;;5.70;99.90;;;;;;5016337;28;20294;-86
2020/12/31 12:07:35;;;;;;;8.18;5.10;;;5.80;99.90;;;;;;5021474;28;20210;-86
2020/12/31 12:10:02;;;;;;;9.45;5.60;;;5.90;99.90;;;;;;5042648;28;20199;-84
2020/12/31 12:12:29;;;;;;;8.25;5.50;;;5.90;99.90;;;;;;5048440;28;20641;-87
2020/12/31 12:14:56;;;;;;;8.30;5.05;;;5.80;99.90;;;;;;5043002;28;20313;-86
2020/12/31 12:17:22;;;;;;;8.45;5.15;;;6.10;99.90;;;;;;5043321;28;20246;-86
2020/12/31 12:19:49;;;;;;;9.10;5.10;;;6.10;99.90;;;;;;5040884;28;20360;-85
2020/12/31 12:22:16;;;;;;;10.48;4.68;;;5.90;99.90;;;;;;5036524;28;20227;-85
2020/12/31 12:24:42;;;;;;;10.85;4.85;;;5.80;99.90;;;;;;5037690;28;20227;-84
2020/12/31 12:27:09;;;;;;;6.65;4.20;;;6.10;99.90;;;;;;5040212;28;20261;-84
2020/12/31 12:29:37;;;;;;;7.40;4.68;;;5.90;99.90;;;;;;5039450;28;20204;-77
2020/12/31 12:32:12;;;;;;;8.55;5.20;;;6.00;99.90;;;;;;5038255;28;20199;-82
2020/12/31 12:34:39;;;;;;;7.22;5.13;;;5.80;99.90;;;;;;5035681;28;20657;-82
2020/12/31 12:37:06;;;;;;;7.22;4.35;;;6.10;99.90;;;;;;5040303;28;20320;-85
2020/12/31 12:39:33;;;;;;;8.48;5.50;;;5.80;99.90;;;;;;5037815;28;20571;-83
2020/12/31 12:41:59;;;;;;;8.82;4.93;;;6.00;99.90;;;;;;5038082;28;20712;-81
2020/12/31 12:44:34;;;;;;;7.70;5.05;;;5.90;99.90;;;;;;5037869;28;20248;-88
2020/12/31 12:47:02;;;;;;;5.90;4.10;;;5.90;99.90;;;;;;5044491;28;20290;-79
2020/12/31 12:49:28;;;;;;;6.95;4.82;;;5.90;99.90;;;;;;5046783;28;20207;-85
2020/12/31 12:51:55;;;;;;;8.88;5.05;;;6.10;99.90;;;;;;5048399;28;20203;-80
2020/12/31 12:54:22;;;;;;;10.43;4.72;;;6.00;99.90;;;;;;5046174;28;20250;-85
2020/12/31 12:56:51;;;;;;;10.10;5.05;;;6.10;99.90;;;;;;5043180;28;20264;-87
2020/12/31 12:59:18;;;;;;;8.40;4.35;;;6.00;99.90;;;;;;5043907;28;20246;-86
2020/12/31 13:01:45;;;;;;;6.70;4.93;;;6.00;99.90;;;;;;5039365;28;20203;-84
2020/12/31 13:04:12;;;;;;;8.70;5.38;;;6.00;99.90;;;;;;5038423;28;20231;-78